Time;durP1;ratioP1;P1;durP2;ratioP2;P2;SDS_P1;SDS_P2;PMS_P1;PMS_P2;Temp;Humidity;BMP_temperature;BMP_pressure;BME280_temperature;BME280_humidity;BME280_pressure;Samples;Min_cycle;Max_cycle;Signal;HPM_P1;HPM_P2
2022/11/21 00:00:59;;;;;;;1999.90;999.90;;;;;;;;;;5031352;28;20227;-75
2022/11/21 00:03:27;;;;;;;1999.90;999.90;;;;;;;;;;5053368;28;20236;-75
2022/11/21 00:05:55;;;;;;;1999.90;999.90;;;;;;;;;;5056643;28;21093;-74
2022/11/21 00:08:24;;;;;;;1999.90;999.90;;;;;;;;;;5070717;28;20235;-74
2022/11/21 00:10:52;;;;;;;1999.90;999.90;;;;;;;;;;5032365;28;20224;-73
2022/11/21 00:13:20;;;;;;;1999.90;999.90;;;;;;;;;;5050730;28;20238;-74
2022/11/21 00:15:48;;;;;;;1999.90;999.90;;;;;;;;;;5052176;28;20236;-73
2022/11/21 00:18:16;;;;;;;1999.90;999.90;;;;;;;;;;5067514;28;20235;-74
2022/11/21 00:20:44;;;;;;;1999.90;999.90;;;;;;;;;;5038795;28;20759;-74
2022/11/21 00:23:12;;;;;;;1999.90;999.90;;;;;;;;;;5065904;28;20231;-75
2022/11/21 00:25:41;;;;;;;1999.90;999.90;;;;;;;;;;5068752;28;20286;-74
2022/11/21 00:28:09;;;;;;;1999.90;999.90;;;;;;;;;;5051904;28;20223;-74
2022/11/21 00:30:37;;;;;;;1999.90;999.90;;;;;;;;;;5053584;28;21100;-74
2022/11/21 00:33:05;;;;;;;1999.90;999.90;;;;;;;;;;5071435;28;20321;-75
2022/11/21 00:35:33;;;;;;;1999.90;999.90;;;;;;;;;;5049189;28;20231;-74
2022/11/21 00:38:01;;;;;;;1999.90;999.90;;;;;;;;;;5051677;28;21063;-74
2022/11/21 00:40:29;;;;;;;1999.90;999.90;;;;;;;;;;5054588;28;21115;-75
2022/11/21 00:42:58;;;;;;;1999.90;999.90;;;;;;;;;;5066215;28;20251;-73
2022/11/21 00:45:26;;;;;;;1999.90;999.90;;;;;;;;;;5048994;28;20236;-74
2022/11/21 00:47:54;;;;;;;1999.90;999.90;;;;;;;;;;5072926;28;20227;-74
2022/11/21 00:50:22;;;;;;;1999.90;999.90;;;;;;;;;;5048721;28;20257;-74
2022/11/21 00:52:49;;;;;;;1999.90;999.90;;;;;;;;;;5053842;28;20295;-74
2022/11/21 00:55:17;;;;;;;1999.90;999.90;;;;;;;;;;5066755;28;20230;-74
2022/11/21 00:57:45;;;;;;;1999.90;999.90;;;;;;;;;;5054697;28;20312;-73
2022/11/21 01:00:15;;;;;;;1999.90;999.90;;;;;;;;;;5050990;28;20322;-74
2022/11/21 01:02:43;;;;;;;1999.90;999.90;;;;;;;;;;5050701;28;20969;-72
2022/11/21 01:05:11;;;;;;;1999.90;999.90;;;;;;;;;;5080171;28;20315;-74
2022/11/21 01:07:39;;;;;;;1999.90;999.90;;;;;;;;;;5071505;28;20711;-74
2022/11/21 01:10:07;;;;;;;1999.90;999.90;;;;;;;;;;5051271;28;20713;-74
2022/11/21 01:12:35;;;;;;;1999.90;999.90;;;;;;;;;;5050347;28;20281;-74
2022/11/21 01:15:03;;;;;;;1999.90;999.90;;;;;;;;;;5055668;28;20232;-74
2022/11/21 01:17:33;;;;;;;1999.90;999.90;;;;;;;;;;5052733;28;21118;-73
2022/11/21 01:20:01;;;;;;;1999.90;999.90;;;;;;;;;;5051983;28;20231;-74
2022/11/21 01:22:29;;;;;;;1999.90;999.90;;;;;;;;;;5067959;28;20763;-74
2022/11/21 01:24:57;;;;;;;1999.90;999.90;;;;;;;;;;5059005;28;20220;-74
2022/11/21 01:27:25;;;;;;;1999.90;999.90;;;;;;;;;;5071908;28;20685;-75
2022/11/21 01:29:53;;;;;;;1999.90;999.90;;;;;;;;;;5049661;28;20303;-75
2022/11/21 01:32:21;;;;;;;1999.90;999.90;;;;;;;;;;5038542;28;20219;-75
2022/11/21 01:34:50;;;;;;;1999.90;999.90;;;;;;;;;;5052399;28;21069;-75
2022/11/21 01:37:18;;;;;;;1999.90;999.90;;;;;;;;;;5068795;28;20242;-74
2022/11/21 01:39:46;;;;;;;1999.90;999.90;;;;;;;;;;5053076;28;20219;-74
2022/11/21 01:42:13;;;;;;;1999.90;999.90;;;;;;;;;;5048136;28;20902;-72
2022/11/21 01:44:46;;;;;;;1999.90;999.90;;;;;;;;;;5055173;28;20228;-73
2022/11/21 01:47:14;;;;;;;1999.90;999.90;;;;;;;;;;5050500;28;20239;-74
2022/11/21 01:49:42;;;;;;;1999.90;999.90;;;;;;;;;;5048482;28;20250;-74
2022/11/21 01:52:14;;;;;;;1999.90;999.90;;;;;;;;;;5050778;28;20242;-74
2022/11/21 01:54:43;;;;;;;1999.90;999.90;;;;;;;;;;5067874;28;20599;-75
2022/11/21 01:57:13;;;;;;;1999.90;999.90;;;;;;;;;;5074237;28;20235;-74
2022/11/21 01:59:44;;;;;;;1999.90;999.90;;;;;;;;;;5055354;28;20279;-74
2022/11/21 02:02:13;;;;;;;1999.90;999.90;;;;;;;;;;5054235;28;21260;-74
2022/11/21 02:04:43;;;;;;;1999.90;999.90;;;;;;;;;;5070220;28;20238;-74
2022/11/21 02:07:13;;;;;;;1999.90;999.90;;;;;;;;;;5055721;28;20238;-74
2022/11/21 02:09:44;;;;;;;1999.90;999.90;;;;;;;;;;5069824;28;20224;-74
2022/11/21 02:12:15;;;;;;;1999.90;999.90;;;;;;;;;;5070468;28;20239;-73
2022/11/21 02:14:43;;;;;;;1999.90;999.90;;;;;;;;;;5049484;28;20231;-73
2022/11/21 02:17:11;;;;;;;1999.90;999.90;;;;;;;;;;5049401;28;20247;-74
2022/11/21 02:19:44;;;;;;;1999.90;999.90;;;;;;;;;;5046815;28;20266;-74
2022/11/21 02:22:21;;;;;;;1999.90;999.90;;;;;;;;;;5048252;28;20235;-74
2022/11/21 02:24:58;;;;;;;1999.90;999.90;;;;;;;;;;5050219;28;20301;-73
2022/11/21 02:27:26;;;;;;;1999.90;999.90;;;;;;;;;;5049252;28;20227;-73
2022/11/21 02:29:54;;;;;;;1999.90;999.90;;;;;;;;;;5068951;28;20239;-74
2022/11/21 02:32:22;;;;;;;1999.90;999.90;;;;;;;;;;5049246;28;20231;-74
2022/11/21 02:34:50;;;;;;;1999.90;999.90;;;;;;;;;;5053365;28;20238;-74
2022/11/21 02:37:18;;;;;;;1999.90;999.90;;;;;;;;;;5048617;28;20247;-73
2022/11/21 02:39:47;;;;;;;1999.90;999.90;;;;;;;;;;5068621;28;20236;-73
2022/11/21 02:42:19;;;;;;;1999.90;999.90;;;;;;;;;;5048611;28;20322;-74
2022/11/21 02:44:51;;;;;;;1999.90;999.90;;;;;;;;;;5056455;28;20267;-73
2022/11/21 02:47:19;;;;;;;1999.90;999.90;;;;;;;;;;5069552;28;20235;-73
2022/11/21 02:49:50;;;;;;;1999.90;999.90;;;;;;;;;;5044446;28;20320;-75
2022/11/21 02:52:18;;;;;;;1999.90;999.90;;;;;;;;;;5048790;28;20266;-77
2022/11/21 02:54:46;;;;;;;1999.90;999.90;;;;;;;;;;5068164;28;20258;-74
2022/11/21 02:57:14;;;;;;;1999.90;999.90;;;;;;;;;;5047175;28;20231;-73
2022/11/21 02:59:43;;;;;;;1999.90;999.90;;;;;;;;;;5052748;28;20314;-74
2022/11/21 03:02:11;;;;;;;1999.90;999.90;;;;;;;;;;5069407;28;20227;-75
2022/11/21 03:04:39;;;;;;;1999.90;999.90;;;;;;;;;;5050738;28;21426;-73
2022/11/21 03:07:07;;;;;;;1999.90;999.90;;;;;;;;;;5067918;28;20310;-73
2022/11/21 03:09:35;;;;;;;1999.90;999.90;;;;;;;;;;5054909;28;20243;-74
2022/11/21 03:12:05;;;;;;;1999.90;999.90;;;;;;;;;;5048674;28;20223;-75
2022/11/21 03:14:33;;;;;;;1999.90;999.90;;;;;;;;;;5059844;28;20235;-74
2022/11/21 03:17:03;;;;;;;1999.90;999.90;;;;;;;;;;5033222;28;20706;-75
2022/11/21 03:19:31;;;;;;;1999.90;999.90;;;;;;;;;;5072198;28;20231;-74
2022/11/21 03:21:59;;;;;;;1999.90;999.90;;;;;;;;;;5049235;28;20216;-74
2022/11/21 03:24:42;;;;;;;1999.90;999.90;;;;;;;;;;5071070;28;21077;-74
2022/11/21 03:27:25;;;;;;;1999.90;999.90;;;;;;;;;;5072733;28;20224;-74
2022/11/21 03:30:09;;;;;;;1999.90;999.90;;;;;;;;;;5073866;28;20231;-75
2022/11/21 03:32:38;;;;;;;1999.90;999.90;;;;;;;;;;5053331;28;20230;-73
2022/11/21 03:35:06;;;;;;;1999.90;999.90;;;;;;;;;;5055123;28;20286;-76
2022/11/21 03:37:34;;;;;;;1999.90;999.90;;;;;;;;;;5043901;28;20231;-74
2022/11/21 03:40:02;;;;;;;1999.90;999.90;;;;;;;;;;5055877;28;20227;-74
2022/11/21 03:42:30;;;;;;;1999.90;999.90;;;;;;;;;;5049562;28;20341;-73
2022/11/21 03:44:58;;;;;;;1999.90;999.90;;;;;;;;;;5059755;28;20288;-74
2022/11/21 03:47:26;;;;;;;1999.90;999.90;;;;;;;;;;5051676;28;20314;-73
2022/11/21 03:49:55;;;;;;;1999.90;999.90;;;;;;;;;;5070574;28;20339;-74
2022/11/21 03:52:23;;;;;;;1999.90;999.90;;;;;;;;;;5048561;28;20227;-74
2022/11/21 03:54:51;;;;;;;1999.90;999.90;;;;;;;;;;5065762;28;20251;-74
2022/11/21 03:57:19;;;;;;;1999.90;999.90;;;;;;;;;;5050427;28;20231;-74
2022/11/21 03:59:47;;;;;;;1999.90;999.90;;;;;;;;;;5047112;28;21009;-75
2022/11/21 04:02:14;;;;;;;1999.90;999.90;;;;;;;;;;5052714;28;20227;-74
2022/11/21 04:04:42;;;;;;;1999.90;999.90;;;;;;;;;;5053989;28;20315;-74
2022/11/21 04:07:12;;;;;;;1999.90;999.90;;;;;;;;;;5060936;28;20234;-74
2022/11/21 04:09:40;;;;;;;1999.90;999.90;;;;;;;;;;5058027;28;20223;-74
2022/11/21 04:12:07;;;;;;;1999.90;999.90;;;;;;;;;;5058419;28;20228;-74
2022/11/21 04:14:35;;;;;;;1999.90;999.90;;;;;;;;;;5066785;28;20238;-73
2022/11/21 04:17:03;;;;;;;1999.90;999.90;;;;;;;;;;5057909;28;20235;-73
2022/11/21 04:19:31;;;;;;;1999.90;999.90;;;;;;;;;;5054241;28;20306;-73
2022/11/21 04:21:59;;;;;;;1999.90;999.90;;;;;;;;;;5077178;28;20243;-74
2022/11/21 04:24:28;;;;;;;1999.90;999.90;;;;;;;;;;5070425;28;20235;-74
2022/11/21 04:26:57;;;;;;;1999.90;999.90;;;;;;;;;;5071814;28;20231;-74
2022/11/21 04:29:25;;;;;;;1999.90;999.90;;;;;;;;;;5059653;28;20323;-74
2022/11/21 04:31:52;;;;;;;1999.90;999.90;;;;;;;;;;5078411;28;20235;-74
2022/11/21 04:34:20;;;;;;;1999.90;999.90;;;;;;;;;;5069491;28;20228;-74
2022/11/21 04:36:48;;;;;;;1999.90;999.90;;;;;;;;;;5072509;28;20331;-74
2022/11/21 04:39:16;;;;;;;1999.90;999.90;;;;;;;;;;5052577;28;20235;-75
2022/11/21 04:41:45;;;;;;;1999.90;999.90;;;;;;;;;;5041726;28;20216;-74
2022/11/21 04:44:13;;;;;;;1999.90;999.90;;;;;;;;;;5071050;28;21096;-74
2022/11/21 04:46:41;;;;;;;1999.90;999.90;;;;;;;;;;5056051;28;20229;-73
2022/11/21 04:49:09;;;;;;;1999.90;999.90;;;;;;;;;;5056321;28;20233;-73
2022/11/21 04:51:37;;;;;;;1999.90;999.90;;;;;;;;;;5050044;28;20617;-73
2022/11/21 04:54:05;;;;;;;1999.90;999.90;;;;;;;;;;5061099;28;20238;-74
2022/11/21 04:56:33;;;;;;;1999.90;999.90;;;;;;;;;;5062975;28;20258;-73
2022/11/21 04:59:02;;;;;;;1999.90;999.90;;;;;;;;;;5078156;28;20240;-73
2022/11/21 05:01:30;;;;;;;1999.90;999.90;;;;;;;;;;5053255;28;20880;-74
2022/11/21 05:03:59;;;;;;;1999.90;999.90;;;;;;;;;;4920898;28;20239;-74
2022/11/21 05:06:34;;;;;;;1999.90;999.90;;;;;;;;;;4764007;28;20249;-74
2022/11/21 05:09:09;;;;;;;1999.90;999.90;;;;;;;;;;4836530;28;20223;-74
2022/11/21 05:14:28;;;;;;;1999.90;999.90;;;;;;;;;;4737959;28;20310;-76
2022/11/21 05:17:01;;;;;;;1999.90;999.90;;;;;;;;;;4736287;28;20235;-75
2022/11/21 05:19:33;;;;;;;1999.90;999.90;;;;;;;;;;4919519;28;20224;-74
2022/11/21 05:22:01;;;;;;;1999.90;999.90;;;;;;;;;;5050802;28;20235;-74
2022/11/21 05:24:29;;;;;;;1999.90;999.90;;;;;;;;;;5042043;28;21006;-73
2022/11/21 05:26:57;;;;;;;1999.90;999.90;;;;;;;;;;5049004;28;20334;-73
2022/11/21 05:29:26;;;;;;;1999.90;999.90;;;;;;;;;;5045874;28;20225;-74
2022/11/21 05:31:55;;;;;;;1999.90;999.90;;;;;;;;;;5049625;28;20235;-74
2022/11/21 05:34:23;;;;;;;1999.90;999.90;;;;;;;;;;5042856;28;20231;-74
2022/11/21 05:36:55;;;;;;;1999.90;999.90;;;;;;;;;;5044079;28;27515;-74
2022/11/21 05:39:23;;;;;;;1999.90;999.90;;;;;;;;;;5062350;28;20321;-74
2022/11/21 05:41:51;;;;;;;1999.90;999.90;;;;;;;;;;5067617;28;20228;-74
2022/11/21 05:44:18;;;;;;;1999.90;999.90;;;;;;;;;;5067500;28;20282;-73
2022/11/21 05:46:47;;;;;;;1999.90;999.90;;;;;;;;;;5045868;28;20216;-74
2022/11/21 05:49:15;;;;;;;1999.90;999.90;;;;;;;;;;5064463;28;20231;-74
2022/11/21 05:51:43;;;;;;;1999.90;999.90;;;;;;;;;;5041657;28;21038;-74
2022/11/21 05:54:12;;;;;;;1999.90;999.90;;;;;;;;;;5064414;28;20228;-75
2022/11/21 05:56:40;;;;;;;1999.90;999.90;;;;;;;;;;5043129;28;21035;-73
2022/11/21 05:59:10;;;;;;;1999.90;999.90;;;;;;;;;;5063113;28;20335;-74
2022/11/21 06:04:25;;;;;;;1999.90;999.90;;;;;;;;;;5062429;28;20238;-74
2022/11/21 06:06:53;;;;;;;1999.90;999.90;;;;;;;;;;5065089;28;20220;-74
2022/11/21 06:09:21;;;;;;;1999.90;999.90;;;;;;;;;;5044839;28;20224;-74
2022/11/21 06:11:49;;;;;;;1999.90;999.90;;;;;;;;;;5040471;28;20315;-74
2022/11/21 06:14:17;;;;;;;1999.90;999.90;;;;;;;;;;5046151;28;20235;-74
2022/11/21 06:16:45;;;;;;;1999.90;999.90;;;;;;;;;;5063941;28;20233;-75
2022/11/21 06:19:12;;;;;;;1999.90;999.90;;;;;;;;;;5046398;28;20228;-74
2022/11/21 06:21:42;;;;;;;1999.90;999.90;;;;;;;;;;5049394;28;20231;-74
2022/11/21 06:24:11;;;;;;;1999.90;999.90;;;;;;;;;;5046099;28;20228;-74
2022/11/21 06:26:38;;;;;;;1999.90;999.90;;;;;;;;;;5042250;28;20236;-75
2022/11/21 06:29:06;;;;;;;1999.90;999.90;;;;;;;;;;5065241;28;20305;-74
2022/11/21 06:31:34;;;;;;;1999.90;999.90;;;;;;;;;;5049367;28;20235;-75
2022/11/21 06:34:02;;;;;;;1999.90;999.90;;;;;;;;;;5067116;28;21190;-76
2022/11/21 06:36:30;;;;;;;1999.90;999.90;;;;;;;;;;5047292;28;20702;-76
2022/11/21 06:39:00;;;;;;;1999.90;999.90;;;;;;;;;;5040231;28;20236;-75
2022/11/21 06:41:29;;;;;;;1999.90;999.90;;;;;;;;;;5059186;28;20247;-74
2022/11/21 06:43:58;;;;;;;1999.90;999.90;;;;;;;;;;5060170;28;20236;-75
2022/11/21 06:46:26;;;;;;;1999.90;999.90;;;;;;;;;;5044508;28;20234;-76
2022/11/21 06:48:54;;;;;;;1999.90;999.90;;;;;;;;;;5044685;28;20231;-75
2022/11/21 06:51:23;;;;;;;1999.90;999.90;;;;;;;;;;5047652;28;21206;-74
2022/11/21 06:53:54;;;;;;;1999.90;999.90;;;;;;;;;;5043714;28;20239;-75
2022/11/21 06:56:24;;;;;;;1999.90;999.90;;;;;;;;;;5045128;28;20262;-74
2022/11/21 06:58:52;;;;;;;1999.90;999.90;;;;;;;;;;5053422;28;20235;-75
2022/11/21 07:01:20;;;;;;;1999.90;999.90;;;;;;;;;;5047010;28;20256;-75
2022/11/21 07:03:48;;;;;;;1999.90;999.90;;;;;;;;;;5039447;28;20316;-74
2022/11/21 07:06:16;;;;;;;1999.90;999.90;;;;;;;;;;5049652;28;20318;-75
2022/11/21 07:08:44;;;;;;;1999.90;999.90;;;;;;;;;;5054185;28;21146;-74
2022/11/21 07:11:13;;;;;;;1999.90;999.90;;;;;;;;;;5063226;28;20225;-73
2022/11/21 07:13:56;;;;;;;1999.90;999.90;;;;;;;;;;5067605;28;20242;-74
2022/11/21 07:16:24;;;;;;;1999.90;999.90;;;;;;;;;;5050337;28;20315;-74
2022/11/21 07:18:53;;;;;;;1999.90;999.90;;;;;;;;;;5040794;28;20268;-74
2022/11/21 07:21:21;;;;;;;1999.90;999.90;;;;;;;;;;5066807;28;20310;-75
2022/11/21 07:23:49;;;;;;;1999.90;999.90;;;;;;;;;;5034999;28;20220;-75
2022/11/21 07:26:17;;;;;;;1999.90;999.90;;;;;;;;;;5064424;28;20230;-74
2022/11/21 07:28:44;;;;;;;1999.90;999.90;;;;;;;;;;5049669;28;20242;-74
2022/11/21 07:31:14;;;;;;;1999.90;999.90;;;;;;;;;;5052821;28;21069;-74
2022/11/21 07:33:43;;;;;;;1999.90;999.90;;;;;;;;;;5030337;28;20228;-73
2022/11/21 07:36:11;;;;;;;1999.90;999.90;;;;;;;;;;5066342;28;20259;-75
2022/11/21 07:38:40;;;;;;;1999.90;999.90;;;;;;;;;;5046029;28;20234;-74
2022/11/21 07:41:08;;;;;;;1999.90;999.90;;;;;;;;;;5041449;28;20282;-75
2022/11/21 07:43:36;;;;;;;1999.90;999.90;;;;;;;;;;5044787;28;20913;-73
2022/11/21 07:46:04;;;;;;;1999.90;999.90;;;;;;;;;;5044063;28;20219;-74
2022/11/21 07:48:33;;;;;;;1999.90;999.90;;;;;;;;;;5063565;28;20224;-74
2022/11/21 07:51:02;;;;;;;1999.90;999.90;;;;;;;;;;5047761;28;20238;-73
2022/11/21 07:53:30;;;;;;;1999.90;999.90;;;;;;;;;;5025087;28;20220;-74
2022/11/21 07:55:59;;;;;;;1999.90;999.90;;;;;;;;;;5047408;28;20228;-74
2022/11/21 07:58:27;;;;;;;1999.90;999.90;;;;;;;;;;5048268;28;20224;-75
2022/11/21 08:00:55;;;;;;;1999.90;999.90;;;;;;;;;;5066026;28;20235;-74
2022/11/21 08:03:24;;;;;;;1999.90;999.90;;;;;;;;;;5046025;28;20307;-75
2022/11/21 08:05:53;;;;;;;1999.90;999.90;;;;;;;;;;5045900;28;20330;-74
2022/11/21 08:08:21;;;;;;;1999.90;999.90;;;;;;;;;;5038533;28;21082;-74
2022/11/21 08:10:50;;;;;;;1999.90;999.90;;;;;;;;;;5041178;28;20270;-74
2022/11/21 08:13:18;;;;;;;1999.90;999.90;;;;;;;;;;5060775;28;20231;-75
2022/11/21 08:15:46;;;;;;;1999.90;999.90;;;;;;;;;;5063210;28;20234;-74
2022/11/21 08:18:14;;;;;;;1999.90;999.90;;;;;;;;;;5063588;28;20722;-75
2022/11/21 08:20:42;;;;;;;1999.90;999.90;;;;;;;;;;5044593;28;20244;-75
2022/11/21 08:23:11;;;;;;;1999.90;999.90;;;;;;;;;;5065824;28;20694;-74
2022/11/21 08:25:40;;;;;;;1999.90;999.90;;;;;;;;;;5051093;28;20310;-73
2022/11/21 08:28:09;;;;;;;1999.90;999.90;;;;;;;;;;5050180;28;20939;-74
2022/11/21 08:30:38;;;;;;;1999.90;999.90;;;;;;;;;;5027594;28;20282;-74
2022/11/21 08:33:06;;;;;;;1999.90;999.90;;;;;;;;;;5041259;28;20239;-73
2022/11/21 08:35:36;;;;;;;1999.90;999.90;;;;;;;;;;5021770;28;20229;-75
2022/11/21 08:38:04;;;;;;;1999.90;999.90;;;;;;;;;;5049806;28;20231;-76
2022/11/21 08:40:34;;;;;;;1999.90;999.90;;;;;;;;;;5028993;28;20240;-72
2022/11/21 08:43:03;;;;;;;1999.90;999.90;;;;;;;;;;5046227;28;20271;-74
2022/11/21 08:45:31;;;;;;;1999.90;999.90;;;;;;;;;;5044948;28;20256;-73
2022/11/21 08:47:59;;;;;;;1999.90;999.90;;;;;;;;;;5025872;28;20232;-75
2022/11/21 08:50:28;;;;;;;1999.90;999.90;;;;;;;;;;5067070;28;20241;-74
2022/11/21 08:52:58;;;;;;;1999.90;999.90;;;;;;;;;;5068477;28;20316;-75
2022/11/21 08:55:27;;;;;;;1999.90;999.90;;;;;;;;;;5070613;28;20247;-74
2022/11/21 08:57:56;;;;;;;1999.90;999.90;;;;;;;;;;5052664;28;20326;-74
2022/11/21 09:00:24;;;;;;;1999.90;999.90;;;;;;;;;;5046257;28;20323;-74
2022/11/21 09:02:52;;;;;;;1999.90;999.90;;;;;;;;;;5033049;28;20263;-74
2022/11/21 09:05:20;;;;;;;1999.90;999.90;;;;;;;;;;5067555;28;20228;-75
2022/11/21 09:07:48;;;;;;;1999.90;999.90;;;;;;;;;;5051458;28;20741;-73
2022/11/21 09:10:16;;;;;;;1999.90;999.90;;;;;;;;;;5050905;28;20236;-75
2022/11/21 09:12:44;;;;;;;1999.90;999.90;;;;;;;;;;5031755;28;20307;-74
2022/11/21 09:18:03;;;;;;;1999.90;999.90;;;;;;;;;;5043777;28;20220;-74
2022/11/21 09:20:32;;;;;;;1999.90;999.90;;;;;;;;;;5066163;28;20326;-73
2022/11/21 09:23:04;;;;;;;1999.90;999.90;;;;;;;;;;5068016;28;20371;-74
2022/11/21 09:25:31;;;;;;;1999.90;999.90;;;;;;;;;;5069407;28;20232;-74
2022/11/21 09:28:00;;;;;;;1999.90;999.90;;;;;;;;;;5047768;28;20755;-74
2022/11/21 09:30:29;;;;;;;1999.90;999.90;;;;;;;;;;5047411;28;20715;-74
2022/11/21 09:32:59;;;;;;;1999.90;999.90;;;;;;;;;;5030538;28;20232;-74
2022/11/21 09:35:27;;;;;;;1999.90;999.90;;;;;;;;;;5060250;28;20717;-74
2022/11/21 09:37:55;;;;;;;1999.90;999.90;;;;;;;;;;5061807;28;20695;-75
2022/11/21 09:40:23;;;;;;;1999.90;999.90;;;;;;;;;;5041141;28;20307;-74
2022/11/21 09:43:02;;;;;;;1999.90;999.90;;;;;;;;;;5049373;28;20235;-73
2022/11/21 09:45:36;;;;;;;1999.90;999.90;;;;;;;;;;5049537;28;20521;-72
2022/11/21 09:48:09;;;;;;;1999.90;999.90;;;;;;;;;;5028941;28;20224;-73
2022/11/21 09:50:39;;;;;;;1999.90;999.90;;;;;;;;;;5064561;28;20232;-72
2022/11/21 09:53:08;;;;;;;1999.90;999.90;;;;;;;;;;5050393;28;20230;-73
2022/11/21 09:55:41;;;;;;;1999.90;999.90;;;;;;;;;;5034681;28;20223;-73
2022/11/21 09:58:14;;;;;;;1999.90;999.90;;;;;;;;;;5050573;28;20236;-72
2022/11/21 10:00:44;;;;;;;1999.90;999.90;;;;;;;;;;5065667;28;20236;-71
2022/11/21 10:03:12;;;;;;;1999.90;999.90;;;;;;;;;;5060776;28;20236;-74
2022/11/21 10:05:49;;;;;;;1999.90;999.90;;;;;;;;;;5070043;28;20234;-73
2022/11/21 10:08:20;;;;;;;1999.90;999.90;;;;;;;;;;5044936;28;20678;-73
2022/11/21 10:10:53;;;;;;;1999.90;999.90;;;;;;;;;;5051163;28;20223;-73
2022/11/21 10:13:28;;;;;;;1999.90;999.90;;;;;;;;;;5061137;28;20232;-74
2022/11/21 10:16:02;;;;;;;1999.90;999.90;;;;;;;;;;5063499;28;20270;-74
2022/11/21 10:18:48;;;;;;;1999.90;999.90;;;;;;;;;;5034456;28;20224;-73
2022/11/21 10:21:26;;;;;;;1999.90;999.90;;;;;;;;;;5048017;28;20331;-73
2022/11/21 10:24:09;;;;;;;1999.90;999.90;;;;;;;;;;5045141;28;20256;-75
2022/11/21 10:26:42;;;;;;;1999.90;999.90;;;;;;;;;;5046471;28;20301;-73
2022/11/21 10:29:12;;;;;;;1999.90;999.90;;;;;;;;;;5042885;28;20235;-73
2022/11/21 10:31:42;;;;;;;1999.90;999.90;;;;;;;;;;5047779;28;21532;-74
2022/11/21 10:34:13;;;;;;;1999.90;999.90;;;;;;;;;;5047926;28;20319;-73
2022/11/21 10:36:42;;;;;;;1999.90;999.90;;;;;;;;;;5046735;28;20235;-74
2022/11/21 10:39:13;;;;;;;1999.90;999.90;;;;;;;;;;5033134;28;20270;-74
2022/11/21 10:41:47;;;;;;;1999.90;999.90;;;;;;;;;;5052316;28;20231;-73
2022/11/21 10:47:15;;;;;;;1999.90;999.90;;;;;;;;;;5050457;28;20224;-74
2022/11/21 10:49:43;;;;;;;1999.90;999.90;;;;;;;;;;5044673;28;20239;-73
2022/11/21 10:52:13;;;;;;;1999.90;999.90;;;;;;;;;;5049740;28;20232;-72
2022/11/21 10:55:00;;;;;;;1999.90;999.90;;;;;;;;;;5031532;28;20695;-73
2022/11/21 10:57:30;;;;;;;1999.90;999.90;;;;;;;;;;5063273;28;20220;-73
2022/11/21 10:59:59;;;;;;;1999.90;999.90;;;;;;;;;;5034952;28;20724;-73
2022/11/21 11:02:29;;;;;;;1999.90;999.90;;;;;;;;;;5037168;28;20338;-74
2022/11/21 11:05:18;;;;;;;1999.90;999.90;;;;;;;;;;5066668;28;20224;-73
2022/11/21 11:07:59;;;;;;;1999.90;999.90;;;;;;;;;;5070195;28;20232;-73
2022/11/21 11:10:27;;;;;;;1999.90;999.90;;;;;;;;;;5051699;28;20220;-74
2022/11/21 11:16:03;;;;;;;1999.90;999.90;;;;;;;;;;5046212;28;20227;-73
2022/11/21 11:18:33;;;;;;;1999.90;999.90;;;;;;;;;;5049336;28;20227;-73
2022/11/21 11:21:16;;;;;;;1999.90;999.90;;;;;;;;;;5044831;28;20963;-73
2022/11/21 11:23:44;;;;;;;1999.90;999.90;;;;;;;;;;5057292;28;20271;-73
2022/11/21 11:26:24;;;;;;;1999.90;999.90;;;;;;;;;;5060310;28;20228;-73
2022/11/21 11:28:53;;;;;;;1999.90;999.90;;;;;;;;;;5052563;28;20232;-73
2022/11/21 11:31:21;;;;;;;1999.90;999.90;;;;;;;;;;5054579;28;20220;-73
2022/11/21 11:33:56;;;;;;;1999.90;999.90;;;;;;;;;;5052883;28;21042;-74
2022/11/21 11:36:33;;;;;;;1999.90;999.90;;;;;;;;;;5038721;28;20302;-72
2022/11/21 11:39:07;;;;;;;1999.90;999.90;;;;;;;;;;5051751;28;20267;-73
2022/11/21 11:47:46;;;;;;;1999.90;999.90;;;;;;;;;;5035213;28;20358;-73
2022/11/21 11:50:24;;;;;;;1999.90;999.90;;;;;;;;;;5055047;28;20245;-74
2022/11/21 11:52:57;;;;;;;1999.90;999.90;;;;;;;;;;5034963;28;20234;-73
2022/11/21 11:55:29;;;;;;;1999.90;999.90;;;;;;;;;;5055091;28;20224;-75
2022/11/21 11:57:59;;;;;;;1999.90;999.90;;;;;;;;;;5033912;28;20231;-74
2022/11/21 12:00:31;;;;;;;1999.90;999.90;;;;;;;;;;5036088;28;20221;-74
2022/11/21 12:03:02;;;;;;;1999.90;999.90;;;;;;;;;;5036170;28;20245;-74
2022/11/21 12:05:32;;;;;;;1999.90;999.90;;;;;;;;;;5050609;28;21052;-74
2022/11/21 12:08:04;;;;;;;1999.90;999.90;;;;;;;;;;5022074;28;20260;-73
2022/11/21 12:13:41;;;;;;;1999.90;999.90;;;;;;;;;;5051179;28;20255;-72
2022/11/21 12:16:12;;;;;;;1999.90;999.90;;;;;;;;;;5053887;28;20224;-72
2022/11/21 12:18:47;;;;;;;1999.90;999.90;;;;;;;;;;5034799;28;20231;-73
2022/11/21 12:21:17;;;;;;;1999.90;999.90;;;;;;;;;;5041495;28;20232;-74
2022/11/21 12:23:46;;;;;;;1999.90;999.90;;;;;;;;;;5055656;28;20726;-74
2022/11/21 12:26:26;;;;;;;1999.90;999.90;;;;;;;;;;5056634;28;20228;-73
2022/11/21 12:29:01;;;;;;;1999.90;999.90;;;;;;;;;;5038398;28;20589;-74
2022/11/21 12:31:34;;;;;;;1999.90;999.90;;;;;;;;;;5056664;28;20365;-75
2022/11/21 12:34:05;;;;;;;1999.90;999.90;;;;;;;;;;5038867;28;20229;-74
2022/11/21 12:36:40;;;;;;;1999.90;999.90;;;;;;;;;;5039935;28;20256;-73
2022/11/21 12:39:17;;;;;;;1999.90;999.90;;;;;;;;;;5041541;28;20226;-75
2022/11/21 12:44:51;;;;;;;1999.90;999.90;;;;;;;;;;5036773;28;20247;-74
2022/11/21 12:47:27;;;;;;;1999.90;999.90;;;;;;;;;;5037532;28;20252;-74
2022/11/21 12:55:42;;;;;;;1999.90;999.90;;;;;;;;;;5055050;28;20313;-74
2022/11/21 12:58:24;;;;;;;1999.90;999.90;;;;;;;;;;5053839;28;20287;-73
2022/11/21 13:00:59;;;;;;;1999.90;999.90;;;;;;;;;;5038038;28;20236;-74
2022/11/21 13:03:38;;;;;;;1999.90;999.90;;;;;;;;;;5036918;28;20231;-74
2022/11/21 13:06:12;;;;;;;1999.90;999.90;;;;;;;;;;5036151;28;20234;-74
2022/11/21 13:08:42;;;;;;;1999.90;999.90;;;;;;;;;;5041470;28;20320;-76
2022/11/21 13:14:03;;;;;;;1999.90;999.90;;;;;;;;;;5053069;28;20229;-74
2022/11/21 13:16:43;;;;;;;1999.90;999.90;;;;;;;;;;5053353;28;20229;-74
2022/11/21 13:19:15;;;;;;;1999.90;999.90;;;;;;;;;;5038378;28;20322;-74
2022/11/21 13:21:44;;;;;;;1999.90;999.90;;;;;;;;;;5053105;28;20387;-74
2022/11/21 13:24:34;;;;;;;1999.90;999.90;;;;;;;;;;5053749;28;20234;-74
2022/11/21 13:27:02;;;;;;;1999.90;999.90;;;;;;;;;;5033826;28;21200;-75
2022/11/21 13:29:30;;;;;;;1999.90;999.90;;;;;;;;;;5036417;28;20292;-74
2022/11/21 13:31:58;;;;;;;1999.90;999.90;;;;;;;;;;5033515;28;20914;-75
2022/11/21 13:34:37;;;;;;;1999.90;999.90;;;;;;;;;;5036068;28;20922;-74
2022/11/21 13:37:05;;;;;;;1999.90;999.90;;;;;;;;;;5035117;28;20233;-75
2022/11/21 13:39:36;;;;;;;1999.90;999.90;;;;;;;;;;5022932;28;20805;-73
2022/11/21 13:44:59;;;;;;;1999.90;999.90;;;;;;;;;;5036424;28;20224;-74
2022/11/21 13:47:49;;;;;;;1999.90;999.90;;;;;;;;;;5054656;28;20987;-74
2022/11/21 13:50:41;;;;;;;1999.90;999.90;;;;;;;;;;5054177;28;20749;-75
2022/11/21 13:53:15;;;;;;;1999.90;999.90;;;;;;;;;;5038830;28;20228;-76
2022/11/21 13:55:55;;;;;;;1999.90;999.90;;;;;;;;;;5052820;28;20225;-73
2022/11/21 13:58:28;;;;;;;1999.90;999.90;;;;;;;;;;5036823;28;20315;-74
2022/11/21 14:01:05;;;;;;;1999.90;999.90;;;;;;;;;;5035637;28;20230;-75
2022/11/21 14:03:46;;;;;;;1999.90;999.90;;;;;;;;;;5051594;28;20239;-75
2022/11/21 14:06:33;;;;;;;1999.90;999.90;;;;;;;;;;5053014;28;20235;-73
2022/11/21 14:09:16;;;;;;;1999.90;999.90;;;;;;;;;;5034262;28;20255;-75
2022/11/21 14:11:48;;;;;;;1999.90;999.90;;;;;;;;;;5022835;28;20374;-74
2022/11/21 14:14:31;;;;;;;1999.90;999.90;;;;;;;;;;5018860;28;20726;-74
2022/11/21 14:17:08;;;;;;;1999.90;999.90;;;;;;;;;;5038199;28;20255;-74
2022/11/21 14:19:36;;;;;;;1999.90;999.90;;;;;;;;;;5034476;28;20232;-73
2022/11/21 14:22:04;;;;;;;1999.90;999.90;;;;;;;;;;5052545;28;20279;-74
2022/11/21 14:24:32;;;;;;;1999.90;999.90;;;;;;;;;;5053040;28;20232;-74
2022/11/21 14:27:04;;;;;;;1999.90;999.90;;;;;;;;;;5034206;28;20227;-74
2022/11/21 14:29:38;;;;;;;1999.90;999.90;;;;;;;;;;5049350;28;20976;-73
2022/11/21 14:32:13;;;;;;;1999.90;999.90;;;;;;;;;;5035977;28;21071;-74
2022/11/21 14:34:41;;;;;;;1999.90;999.90;;;;;;;;;;5035172;28;20252;-75
2022/11/21 14:37:12;;;;;;;1999.90;999.90;;;;;;;;;;5054223;28;20266;-73